Time;durP1;ratioP1;P1;durP2;ratioP2;P2;SDS_P1;SDS_P2;PMS_P1;PMS_P2;Temp;Humidity;BMP_temperature;BMP_pressure;BME280_temperature;BME280_humidity;BME280_pressure;Samples;Min_cycle;Max_cycle;Signal;HPM_P1;HPM_P2
2021/03/14 00:01:11;;;;;;;2.13;1.97;;;5.80;99.90;;;;;;5075890;28;20630;-71
2021/03/14 00:03:37;;;;;;;3.37;2.80;;;5.90;99.90;;;;;;5063658;28;20207;-70
2021/03/14 00:06:03;;;;;;;3.00;2.20;;;5.90;99.90;;;;;;5066817;28;20645;-70
2021/03/14 00:08:30;;;;;;;2.00;1.90;;;5.80;99.90;;;;;;5049454;28;20585;-70
2021/03/14 00:11:01;;;;;;;2.90;2.03;;;5.80;99.90;;;;;;5044079;28;20443;-70
2021/03/14 00:13:30;;;;;;;2.20;1.77;;;5.70;99.90;;;;;;5044753;28;20465;-70
2021/03/14 00:15:56;;;;;;;3.50;2.40;;;5.60;99.90;;;;;;5040945;28;20818;-71
2021/03/14 00:18:28;;;;;;;2.83;2.20;;;5.70;99.90;;;;;;5033759;28;20497;-70
2021/03/14 00:20:54;;;;;;;3.80;2.60;;;5.70;99.90;;;;;;5042295;28;20462;-71
2021/03/14 00:23:20;;;;;;;2.53;2.33;;;5.60;99.90;;;;;;5054006;28;20774;-70
2021/03/14 00:25:45;;;;;;;2.80;2.10;;;5.60;99.90;;;;;;5053703;28;20363;-71
2021/03/14 00:28:12;;;;;;;4.40;2.10;;;5.60;99.90;;;;;;5053693;28;20643;-72
2021/03/14 00:30:38;;;;;;;3.80;2.13;;;5.60;99.90;;;;;;5051900;28;20549;-70
2021/03/14 00:33:04;;;;;;;2.70;2.50;;;5.60;99.90;;;;;;5053736;28;20404;-70
2021/03/14 00:35:29;;;;;;;2.10;1.90;;;5.50;99.90;;;;;;5053866;28;20255;-70
2021/03/14 00:37:55;;;;;;;3.40;2.43;;;5.50;99.90;;;;;;5052954;28;20430;-71
2021/03/14 00:40:24;;;;;;;4.70;2.80;;;5.40;99.90;;;;;;5051883;28;20194;-71
2021/03/14 00:42:51;;;;;;;2.70;1.77;;;5.40;99.90;;;;;;5053628;28;20169;-70
2021/03/14 00:45:17;;;;;;;7.47;2.33;;;5.30;99.90;;;;;;5053790;28;20478;-70
2021/03/14 00:47:43;;;;;;;3.00;2.00;;;5.20;99.90;;;;;;5053426;28;20460;-71
2021/03/14 00:50:09;;;;;;;2.87;1.80;;;5.30;99.90;;;;;;5051652;28;20595;-71
2021/03/14 00:52:35;;;;;;;2.63;2.20;;;5.20;99.90;;;;;;5033683;28;20231;-71
2021/03/14 00:55:00;;;;;;;2.27;1.90;;;5.30;99.90;;;;;;5033396;28;20436;-71
2021/03/14 00:57:26;;;;;;;2.57;2.10;;;5.40;99.90;;;;;;5033684;28;20567;-71
2021/03/14 00:59:52;;;;;;;2.00;1.80;;;5.40;99.90;;;;;;5032054;28;20195;-70
2021/03/14 01:02:17;;;;;;;3.77;2.10;;;5.40;99.90;;;;;;5034562;28;20206;-70
2021/03/14 01:04:43;;;;;;;4.00;2.43;;;5.50;99.90;;;;;;5034039;28;20413;-71
2021/03/14 01:07:09;;;;;;;4.63;2.40;;;5.50;99.90;;;;;;5033735;28;20679;-70
2021/03/14 01:09:34;;;;;;;2.33;2.13;;;5.50;99.90;;;;;;5034123;28;20175;-71
2021/03/14 01:12:00;;;;;;;7.73;2.80;;;5.50;99.90;;;;;;5036508;28;20445;-71
2021/03/14 01:14:25;;;;;;;2.50;2.27;;;5.60;99.90;;;;;;5038075;28;20273;-70
2021/03/14 01:16:51;;;;;;;3.77;2.07;;;5.60;99.90;;;;;;5037229;28;20179;-71
2021/03/14 01:19:17;;;;;;;3.97;2.40;;;5.60;99.90;;;;;;5037054;28;20175;-69
2021/03/14 01:21:43;;;;;;;2.60;2.37;;;5.60;99.90;;;;;;5037124;28;20480;-70
2021/03/14 01:24:08;;;;;;;3.83;2.20;;;5.60;99.90;;;;;;5038637;28;20193;-71
2021/03/14 01:26:34;;;;;;;2.53;2.30;;;5.60;99.90;;;;;;5036343;28;20212;-71
2021/03/14 01:28:59;;;;;;;5.70;2.40;;;5.60;99.90;;;;;;5037122;28;20537;-70
2021/03/14 01:31:25;;;;;;;4.70;2.30;;;5.60;99.90;;;;;;5037232;28;20281;-70
2021/03/14 01:33:50;;;;;;;5.10;2.23;;;5.60;99.90;;;;;;5038302;28;20185;-70
2021/03/14 01:36:17;;;;;;;3.27;2.20;;;5.60;99.90;;;;;;5037330;28;20170;-71
2021/03/14 01:38:43;;;;;;;4.00;2.40;;;5.70;99.90;;;;;;5036831;28;20221;-71
2021/03/14 01:41:08;;;;;;;2.57;2.30;;;5.60;99.90;;;;;;5037253;28;20441;-69
2021/03/14 01:43:37;;;;;;;4.63;2.60;;;5.60;99.90;;;;;;5038039;28;20181;-71
2021/03/14 01:46:06;;;;;;;4.77;2.80;;;5.70;99.90;;;;;;5036824;28;20206;-71
2021/03/14 01:48:35;;;;;;;2.53;2.20;;;5.70;99.90;;;;;;5035768;28;20413;-70
2021/03/14 01:51:03;;;;;;;4.80;2.40;;;5.70;99.90;;;;;;5037345;28;20510;-68
2021/03/14 01:53:29;;;;;;;4.77;2.73;;;5.50;99.90;;;;;;5035783;28;20425;-69
2021/03/14 01:55:55;;;;;;;4.50;2.90;;;5.50;99.90;;;;;;5038102;28;20428;-71
2021/03/14 01:58:23;;;;;;;8.80;3.00;;;5.50;99.90;;;;;;5036782;28;20444;-71
2021/03/14 02:00:50;;;;;;;3.87;2.60;;;5.60;99.90;;;;;;5036991;28;20187;-70
2021/03/14 02:03:16;;;;;;;3.23;2.60;;;5.60;99.90;;;;;;5037118;28;20913;-70
2021/03/14 02:05:41;;;;;;;4.67;2.63;;;5.60;99.90;;;;;;5037986;28;20457;-71
2021/03/14 02:08:07;;;;;;;6.40;2.90;;;5.60;99.90;;;;;;5037343;28;20217;-70
2021/03/14 02:10:34;;;;;;;5.40;2.73;;;5.60;99.90;;;;;;5037170;28;20183;-70
2021/03/14 02:13:09;;;;;;;4.93;3.17;;;5.60;99.90;;;;;;5052982;28;20470;-70
2021/03/14 02:15:39;;;;;;;4.47;2.80;;;5.70;99.90;;;;;;5054426;28;20424;-70
2021/03/14 02:18:06;;;;;;;4.60;2.70;;;5.70;99.90;;;;;;5037223;28;20406;-70
2021/03/14 02:20:32;;;;;;;3.40;2.97;;;5.80;99.90;;;;;;5036539;28;20791;-70
2021/03/14 02:23:31;;;;;;;5.20;2.90;;;5.80;99.90;;;;;;5036455;28;20404;-70
2021/03/14 02:26:11;;;;;;;5.33;2.93;;;5.70;99.90;;;;;;5037193;28;20457;-70
2021/03/14 02:28:38;;;;;;;4.13;2.53;;;5.80;99.90;;;;;;5035992;28;20796;-71
2021/03/14 02:31:05;;;;;;;3.60;2.30;;;5.80;99.90;;;;;;5035938;28;20434;-71
2021/03/14 02:33:34;;;;;;;5.00;2.40;;;5.80;99.90;;;;;;5036459;28;20479;-70
2021/03/14 02:36:01;;;;;;;4.70;2.30;;;5.80;99.90;;;;;;5036430;28;20409;-70
2021/03/14 02:38:27;;;;;;;3.43;2.70;;;5.70;99.90;;;;;;5036903;28;20480;-70
2021/03/14 02:40:55;;;;;;;4.30;1.93;;;5.70;99.90;;;;;;5036297;28;20434;-70
2021/03/14 02:43:22;;;;;;;2.97;1.90;;;5.80;99.90;;;;;;5036211;28;20440;-70
2021/03/14 02:45:50;;;;;;;8.37;2.27;;;5.80;99.90;;;;;;5036166;28;20485;-69
2021/03/14 02:48:16;;;;;;;4.17;2.17;;;5.80;99.90;;;;;;5036948;28;20809;-70
2021/03/14 02:50:43;;;;;;;5.17;2.50;;;5.90;99.90;;;;;;5034938;28;20426;-71
2021/03/14 02:53:08;;;;;;;5.20;2.23;;;5.80;99.90;;;;;;5036130;28;20417;-70
2021/03/14 02:55:34;;;;;;;2.40;2.20;;;5.80;99.90;;;;;;5035950;28;20937;-70
2021/03/14 02:58:01;;;;;;;3.07;2.10;;;5.80;99.90;;;;;;5037263;28;20170;-69
2021/03/14 03:00:30;;;;;;;3.17;2.07;;;5.80;99.90;;;;;;5036213;28;20187;-69
2021/03/14 03:02:56;;;;;;;4.43;2.17;;;5.80;99.90;;;;;;5035775;28;20421;-70
2021/03/14 03:05:24;;;;;;;2.23;2.10;;;5.80;99.90;;;;;;5036246;28;20405;-70
2021/03/14 03:07:53;;;;;;;4.10;2.13;;;5.80;99.90;;;;;;5036661;28;20421;-70
2021/03/14 03:10:21;;;;;;;5.70;2.60;;;5.80;99.90;;;;;;5035711;28;20409;-70
2021/03/14 03:12:49;;;;;;;2.63;2.43;;;5.80;99.90;;;;;;5035529;28;20400;-70
2021/03/14 03:15:19;;;;;;;3.73;3.10;;;5.90;99.90;;;;;;5035748;28;20484;-70
2021/03/14 03:17:46;;;;;;;4.80;2.37;;;5.80;99.90;;;;;;5036697;28;20467;-71
2021/03/14 03:20:12;;;;;;;2.20;2.00;;;5.80;99.90;;;;;;5035210;28;20433;-70
2021/03/14 03:22:39;;;;;;;4.17;2.47;;;5.80;99.90;;;;;;5035281;28;20421;-70
2021/03/14 03:25:07;;;;;;;4.03;3.20;;;5.80;99.90;;;;;;5035320;28;20441;-70
2021/03/14 03:27:37;;;;;;;2.50;2.07;;;5.80;99.90;;;;;;5036638;28;20464;-71
2021/03/14 03:30:09;;;;;;;4.47;2.30;;;5.90;99.90;;;;;;5035960;28;20516;-70
2021/03/14 03:32:35;;;;;;;2.93;2.20;;;5.90;99.90;;;;;;5039282;28;20402;-70
2021/03/14 03:35:01;;;;;;;3.50;2.37;;;5.90;99.90;;;;;;5048502;28;20417;-70
2021/03/14 03:37:27;;;;;;;5.10;2.33;;;5.90;99.90;;;;;;5053166;28;20429;-70
2021/03/14 03:39:52;;;;;;;2.33;2.10;;;5.90;99.90;;;;;;5055375;28;20438;-71
2021/03/14 03:42:23;;;;;;;4.60;2.40;;;5.90;99.90;;;;;;5036601;28;20198;-70
2021/03/14 03:44:50;;;;;;;5.93;2.90;;;5.90;99.90;;;;;;5035638;28;20236;-71
2021/03/14 03:47:16;;;;;;;5.13;2.77;;;5.90;99.90;;;;;;5033584;28;21112;-71
2021/03/14 03:49:46;;;;;;;6.60;2.93;;;5.90;99.90;;;;;;5035896;28;20484;-71
2021/03/14 03:52:15;;;;;;;7.33;3.03;;;5.80;99.90;;;;;;5035506;28;20409;-70
2021/03/14 03:54:41;;;;;;;6.00;2.70;;;5.80;99.90;;;;;;5034590;28;20487;-71
2021/03/14 03:57:07;;;;;;;2.30;2.00;;;5.80;99.90;;;;;;5035043;28;20492;-70
2021/03/14 03:59:35;;;;;;;3.20;2.30;;;5.80;99.90;;;;;;5035295;28;20493;-70
2021/03/14 04:02:02;;;;;;;2.50;2.30;;;5.80;99.90;;;;;;5034388;28;20421;-71
2021/03/14 04:04:28;;;;;;;4.20;2.23;;;5.80;99.90;;;;;;5034591;28;20425;-71
2021/03/14 04:06:55;;;;;;;4.13;2.43;;;5.70;99.90;;;;;;5034193;28;20512;-71
2021/03/14 04:09:23;;;;;;;5.40;2.53;;;5.70;99.90;;;;;;5034021;28;20433;-71
2021/03/14 04:11:49;;;;;;;4.87;2.50;;;5.70;99.90;;;;;;5035087;28;20428;-71
2021/03/14 04:14:16;;;;;;;3.07;2.70;;;5.60;99.90;;;;;;5034225;28;20448;-71
2021/03/14 04:16:42;;;;;;;3.67;2.20;;;5.70;99.90;;;;;;5033567;28;20463;-70
2021/03/14 04:19:14;;;;;;;2.73;1.73;;;5.60;99.90;;;;;;5033710;28;20905;-70
2021/03/14 04:21:41;;;;;;;3.13;2.33;;;5.60;99.90;;;;;;5035101;28;20461;-71
2021/03/14 04:24:12;;;;;;;5.67;2.40;;;5.50;99.90;;;;;;5034028;28;20436;-70
2021/03/14 04:26:40;;;;;;;3.03;2.10;;;5.50;99.90;;;;;;5033939;28;20551;-70
2021/03/14 04:29:08;;;;;;;2.97;1.90;;;5.60;99.90;;;;;;5034214;28;20408;-71
2021/03/14 04:31:34;;;;;;;5.53;2.40;;;5.60;99.90;;;;;;5035442;28;20825;-71
2021/03/14 04:34:00;;;;;;;5.23;2.83;;;5.60;99.90;;;;;;5033711;28;20442;-71
2021/03/14 04:36:26;;;;;;;2.63;2.13;;;5.60;99.90;;;;;;5043474;28;20439;-71
2021/03/14 04:38:52;;;;;;;4.60;2.17;;;5.60;99.90;;;;;;5053118;28;20432;-71
2021/03/14 04:41:18;;;;;;;3.60;2.30;;;5.60;99.90;;;;;;5054253;28;20983;-70
2021/03/14 04:43:44;;;;;;;4.53;2.10;;;5.70;99.90;;;;;;5052540;28;20487;-71
2021/03/14 04:46:15;;;;;;;5.37;2.50;;;5.70;99.90;;;;;;5053682;28;20778;-70
2021/03/14 04:48:40;;;;;;;3.27;2.33;;;5.60;99.90;;;;;;5053220;28;20474;-71
2021/03/14 04:51:06;;;;;;;6.83;2.27;;;5.50;99.90;;;;;;5053531;28;20443;-71
2021/03/14 04:53:34;;;;;;;7.60;2.30;;;5.50;99.90;;;;;;5051895;28;20956;-71
2021/03/14 04:56:01;;;;;;;4.10;2.33;;;5.50;99.90;;;;;;5053649;28;20424;-71
2021/03/14 04:58:28;;;;;;;4.93;2.40;;;5.50;99.90;;;;;;5053505;28;20480;-71
2021/03/14 05:00:54;;;;;;;7.03;2.47;;;5.40;99.90;;;;;;5053516;28;20782;-71
2021/03/14 05:03:23;;;;;;;4.47;2.70;;;5.50;99.90;;;;;;5053637;28;20504;-71
2021/03/14 05:05:53;;;;;;;3.40;2.63;;;5.50;99.90;;;;;;5052948;28;20194;-71
2021/03/14 05:08:22;;;;;;;5.30;3.13;;;5.60;99.90;;;;;;5053426;28;20427;-71
2021/03/14 05:10:49;;;;;;;6.83;3.33;;;5.70;99.90;;;;;;5053836;28;20470;-71
2021/03/14 05:13:15;;;;;;;4.10;2.83;;;5.60;99.90;;;;;;5053383;28;20431;-71
2021/03/14 05:15:41;;;;;;;3.57;2.30;;;5.70;99.90;;;;;;5051872;28;20490;-71
2021/03/14 05:18:10;;;;;;;6.97;3.07;;;5.60;99.90;;;;;;5053324;28;20413;-71
2021/03/14 05:20:36;;;;;;;5.10;3.60;;;5.60;99.90;;;;;;5053314;28;20522;-71
2021/03/14 05:23:02;;;;;;;4.40;2.80;;;5.60;99.90;;;;;;5053783;28;20393;-70
2021/03/14 05:25:28;;;;;;;10.60;3.77;;;5.60;99.90;;;;;;5052064;28;20751;-71
2021/03/14 05:27:54;;;;;;;6.10;3.30;;;5.50;99.90;;;;;;5053530;28;20435;-70
2021/03/14 05:30:21;;;;;;;4.20;3.23;;;5.60;99.90;;;;;;5053357;28;20189;-70
2021/03/14 05:32:47;;;;;;;5.93;3.63;;;5.60;99.90;;;;;;5053731;28;20435;-70
2021/03/14 05:35:13;;;;;;;5.90;3.70;;;5.60;99.90;;;;;;5053121;28;20415;-71
2021/03/14 05:37:39;;;;;;;8.80;4.10;;;5.60;99.90;;;;;;5037092;28;20745;-70
2021/03/14 05:40:05;;;;;;;5.27;4.40;;;5.40;99.90;;;;;;5033255;28;20194;-71
2021/03/14 05:42:32;;;;;;;4.03;3.40;;;5.40;99.90;;;;;;5033385;28;20166;-70
2021/03/14 05:44:58;;;;;;;9.60;4.20;;;5.40;99.90;;;;;;5033139;28;20898;-71
2021/03/14 05:47:24;;;;;;;6.43;3.70;;;5.40;99.90;;;;;;5034536;28;20464;-71
2021/03/14 05:49:51;;;;;;;5.83;3.23;;;5.50;99.90;;;;;;5032967;28;20975;-70
2021/03/14 05:52:17;;;;;;;6.17;3.53;;;5.60;99.90;;;;;;5033242;28;20177;-70
2021/03/14 05:54:44;;;;;;;8.07;3.97;;;5.60;99.90;;;;;;5033531;28;20732;-70
2021/03/14 05:57:10;;;;;;;6.80;3.70;;;5.60;99.90;;;;;;5034216;28;20895;-71
2021/03/14 05:59:37;;;;;;;6.23;3.73;;;5.60;99.90;;;;;;5035727;28;20408;-70
2021/03/14 06:02:03;;;;;;;5.23;3.63;;;5.70;99.90;;;;;;5037035;28;20171;-70
2021/03/14 06:04:30;;;;;;;8.40;4.40;;;5.70;99.90;;;;;;5036956;28;20409;-70
2021/03/14 06:06:57;;;;;;;5.80;4.00;;;5.70;99.90;;;;;;5036958;28;20477;-70
2021/03/14 06:09:22;;;;;;;7.47;3.60;;;5.70;99.90;;;;;;5036827;28;20951;-71
2021/03/14 06:11:48;;;;;;;8.47;4.13;;;5.70;99.90;;;;;;5037245;28;20492;-70
2021/03/14 06:14:14;;;;;;;7.40;4.17;;;5.60;99.90;;;;;;5036587;28;20223;-70
2021/03/14 06:16:40;;;;;;;5.77;4.40;;;5.50;99.90;;;;;;5036545;28;20496;-71
2021/03/14 06:19:06;;;;;;;10.23;3.83;;;5.50;99.90;;;;;;5037554;28;20179;-70
2021/03/14 06:21:32;;;;;;;6.40;4.40;;;5.40;99.90;;;;;;5036010;28;20460;-71
2021/03/14 06:24:06;;;;;;;4.27;3.50;;;5.50;99.90;;;;;;5036979;28;20625;-70
2021/03/14 06:26:46;;;;;;;10.07;3.67;;;5.60;99.90;;;;;;5038101;28;20441;-70
2021/03/14 06:29:18;;;;;;;4.20;3.30;;;5.60;99.90;;;;;;5037577;28;20460;-70
2021/03/14 06:31:59;;;;;;;4.90;3.20;;;5.60;99.90;;;;;;5036628;28;20480;-70
2021/03/14 06:34:36;;;;;;;9.77;4.50;;;5.60;99.90;;;;;;5036645;28;20456;-70
2021/03/14 06:37:07;;;;;;;9.67;3.13;;;5.60;99.90;;;;;;5036806;28;20409;-71
2021/03/14 06:39:44;;;;;;;4.33;3.20;;;5.50;99.90;;;;;;5036195;28;20406;-71
2021/03/14 06:42:10;;;;;;;6.83;3.27;;;5.60;99.90;;;;;;5036714;28;20447;-70
2021/03/14 06:44:37;;;;;;;4.63;2.97;;;5.60;99.90;;;;;;5036054;28;20462;-70
2021/03/14 06:47:07;;;;;;;4.10;3.20;;;5.60;99.90;;;;;;5035056;28;20211;-72
2021/03/14 06:49:39;;;;;;;4.80;3.47;;;5.60;99.90;;;;;;5036154;28;20462;-70
2021/03/14 06:52:05;;;;;;;10.00;3.70;;;5.60;99.90;;;;;;5037109;28;20425;-70
2021/03/14 06:54:30;;;;;;;9.80;3.90;;;5.70;99.90;;;;;;5035538;28;20398;-70
2021/03/14 06:57:06;;;;;;;9.00;3.70;;;5.70;99.90;;;;;;5040655;28;20437;-70
2021/03/14 06:59:34;;;;;;;8.40;3.77;;;5.70;99.90;;;;;;5047867;28;20239;-70
2021/03/14 07:02:04;;;;;;;8.47;4.50;;;5.70;99.90;;;;;;5038183;28;20420;-70
2021/03/14 07:04:53;;;;;;;7.80;3.60;;;5.60;99.90;;;;;;5037518;28;20393;-71
2021/03/14 07:07:18;;;;;;;9.50;4.67;;;5.60;99.90;;;;;;5047068;28;20473;-71
2021/03/14 07:09:45;;;;;;;5.97;4.47;;;5.60;99.90;;;;;;5050542;28;20451;-71
2021/03/14 07:12:18;;;;;;;6.80;4.40;;;5.60;99.90;;;;;;5059542;28;20181;-70
2021/03/14 07:14:44;;;;;;;4.83;3.97;;;5.70;99.90;;;;;;5069832;28;20471;-70
2021/03/14 07:17:10;;;;;;;7.53;4.50;;;5.70;99.90;;;;;;5067721;28;20430;-70
2021/03/14 07:19:38;;;;;;;5.47;4.97;;;5.70;99.90;;;;;;5044388;28;20575;-69
2021/03/14 07:22:11;;;;;;;10.77;5.13;;;5.70;99.90;;;;;;5042495;28;20451;-69
2021/03/14 07:24:38;;;;;;;7.10;5.10;;;5.80;99.90;;;;;;5046977;28;20430;-70
2021/03/14 07:27:11;;;;;;;11.63;5.77;;;5.70;99.90;;;;;;5044352;28;20461;-69
2021/03/14 07:29:39;;;;;;;8.57;5.10;;;5.80;99.90;;;;;;5035000;28;20859;-70
2021/03/14 07:32:06;;;;;;;12.77;6.17;;;5.80;99.90;;;;;;5043528;28;20452;-70
2021/03/14 07:34:32;;;;;;;6.63;5.37;;;5.80;99.90;;;;;;5041978;28;20449;-67
2021/03/14 07:36:58;;;;;;;10.07;4.83;;;5.90;99.90;;;;;;5046732;28;20442;-71
2021/03/14 07:39:24;;;;;;;8.87;5.53;;;5.90;99.90;;;;;;5046031;28;20429;-70
2021/03/14 07:41:50;;;;;;;9.70;5.33;;;5.90;99.90;;;;;;5035105;28;20424;-70
2021/03/14 07:44:18;;;;;;;6.57;4.90;;;5.80;99.90;;;;;;5038218;28;20565;-70
2021/03/14 07:46:45;;;;;;;5.60;4.70;;;5.90;99.90;;;;;;5044876;28;20453;-71
2021/03/14 07:49:15;;;;;;;6.90;4.20;;;5.90;99.90;;;;;;5043538;28;20843;-70
2021/03/14 07:52:03;;;;;;;13.47;4.90;;;6.00;99.90;;;;;;5044732;28;20472;-71
2021/03/14 07:54:49;;;;;;;4.43;4.03;;;6.10;99.90;;;;;;5042279;28;20930;-70
2021/03/14 07:57:22;;;;;;;6.70;4.50;;;6.20;99.90;;;;;;5048494;28;20437;-70
2021/03/14 07:59:48;;;;;;;17.30;5.17;;;6.30;99.90;;;;;;5047695;28;20468;-70
2021/03/14 08:02:19;;;;;;;4.47;4.03;;;6.40;99.90;;;;;;5059796;28;20425;-69
2021/03/14 08:04:46;;;;;;;9.87;4.50;;;6.20;99.90;;;;;;5043817;28;20198;-70
2021/03/14 08:07:12;;;;;;;8.73;4.13;;;6.10;99.90;;;;;;5055020;28;20520;-68
2021/03/14 08:09:45;;;;;;;11.40;4.67;;;6.00;99.90;;;;;;5054683;28;20435;-68
2021/03/14 08:12:16;;;;;;;7.53;4.10;;;5.80;99.90;;;;;;5054634;28;20507;-69
2021/03/14 08:14:44;;;;;;;6.60;5.20;;;5.80;99.90;;;;;;5054308;28;20411;-69
2021/03/14 08:17:14;;;;;;;10.87;4.10;;;5.60;99.90;;;;;;5052242;28;20497;-70
2021/03/14 08:19:41;;;;;;;6.43;4.43;;;5.50;99.90;;;;;;5054204;28;20436;-72
2021/03/14 08:22:07;;;;;;;5.70;3.90;;;5.50;99.90;;;;;;5045214;28;20528;-71
2021/03/14 08:24:33;;;;;;;7.07;3.83;;;5.30;99.90;;;;;;5050019;28;20414;-72
2021/03/14 08:27:07;;;;;;;5.77;3.40;;;5.30;99.90;;;;;;5051501;28;20217;-71
2021/03/14 08:29:42;;;;;;;6.47;3.67;;;5.30;99.90;;;;;;5054231;28;20182;-71
2021/03/14 08:32:23;;;;;;;4.30;3.40;;;5.30;99.90;;;;;;5053259;28;20422;-69
2021/03/14 08:34:48;;;;;;;5.40;3.40;;;5.30;99.90;;;;;;5051130;28;20435;-68
2021/03/14 08:37:24;;;;;;;5.60;3.07;;;5.30;99.90;;;;;;5042729;28;20441;-71
2021/03/14 08:40:01;;;;;;;5.00;4.50;;;5.30;99.90;;;;;;5049696;28;20678;-70
2021/03/14 08:42:49;;;;;;;4.50;3.80;;;5.40;99.90;;;;;;5069635;28;20420;-70
2021/03/14 08:45:22;;;;;;;4.23;3.50;;;5.40;99.90;;;;;;5057165;28;20435;-70
2021/03/14 08:47:49;;;;;;;3.77;2.97;;;5.40;99.90;;;;;;5044813;28;20990;-70
2021/03/14 08:50:14;;;;;;;7.23;4.00;;;5.30;99.90;;;;;;5062482;28;20956;-70
2021/03/14 08:52:40;;;;;;;5.90;3.70;;;5.20;99.90;;;;;;5053677;28;20428;-71
2021/03/14 08:55:06;;;;;;;4.03;3.60;;;5.20;99.90;;;;;;5054332;28;20179;-70
2021/03/14 08:57:31;;;;;;;5.17;3.53;;;4.90;99.90;;;;;;5062462;28;20628;-71
2021/03/14 09:00:00;;;;;;;7.73;3.90;;;5.00;99.90;;;;;;5069983;28;20542;-70
2021/03/14 09:02:30;;;;;;;4.90;4.17;;;5.00;99.90;;;;;;5057303;28;20271;-69
2021/03/14 09:05:10;;;;;;;5.13;4.10;;;5.00;99.90;;;;;;5067255;28;20502;-71
2021/03/14 09:07:36;;;;;;;6.73;5.70;;;5.10;99.90;;;;;;5065338;28;20819;-70
2021/03/14 09:10:33;;;;;;;6.23;4.20;;;5.10;99.90;;;;;;5045444;28;20475;-70
2021/03/14 09:13:01;;;;;;;7.57;4.80;;;5.20;99.90;;;;;;5046570;28;20412;-70
2021/03/14 09:15:27;;;;;;;8.90;5.37;;;5.10;99.90;;;;;;5059695;28;20758;-71
2021/03/14 09:17:57;;;;;;;5.27;4.77;;;5.10;99.90;;;;;;5067504;28;20444;-71
2021/03/14 09:20:23;;;;;;;6.23;5.70;;;5.10;99.90;;;;;;5056210;28;20483;-70
2021/03/14 09:22:49;;;;;;;7.20;5.03;;;5.30;99.90;;;;;;5067382;28;20818;-70
2021/03/14 09:25:15;;;;;;;6.20;5.10;;;5.40;99.90;;;;;;5059662;28;20510;-70
2021/03/14 09:27:44;;;;;;;6.23;4.60;;;5.40;99.90;;;;;;5060689;28;20228;-70
2021/03/14 09:30:18;;;;;;;5.30;4.60;;;5.40;99.90;;;;;;5055030;28;20968;-70
2021/03/14 09:32:50;;;;;;;4.80;4.23;;;5.40;99.90;;;;;;5041731;28;20408;-70
2021/03/14 09:35:19;;;;;;;8.93;4.37;;;5.40;99.90;;;;;;5076086;28;20407;-69
2021/03/14 09:37:50;;;;;;;4.17;3.77;;;5.40;99.90;;;;;;5064866;28;20427;-70
2021/03/14 09:40:38;;;;;;;4.57;3.73;;;5.40;99.90;;;;;;5074159;28;20789;-70
2021/03/14 09:43:20;;;;;;;3.10;2.90;;;5.50;99.90;;;;;;5064566;28;20400;-69
2021/03/14 09:45:51;;;;;;;3.90;3.47;;;5.50;99.90;;;;;;5063570;28;20510;-70
2021/03/14 09:48:25;;;;;;;4.53;2.80;;;5.50;99.90;;;;;;5073197;28;20423;-70
2021/03/14 09:50:57;;;;;;;3.27;2.93;;;5.40;99.90;;;;;;5062270;28;20446;-69
2021/03/14 09:53:31;;;;;;;3.63;3.23;;;5.40;99.90;;;;;;5065917;28;20438;-70
2021/03/14 09:56:06;;;;;;;4.07;3.57;;;5.40;99.90;;;;;;5060812;28;20739;-70
2021/03/14 09:58:32;;;;;;;7.20;3.30;;;5.20;99.90;;;;;;5056458;28;20437;-70
2021/03/14 10:01:00;;;;;;;4.20;3.80;;;5.30;99.90;;;;;;5068215;28;20470;-70
2021/03/14 10:03:30;;;;;;;5.70;3.80;;;5.40;99.90;;;;;;5065563;28;20408;-70
2021/03/14 10:06:15;;;;;;;3.70;3.37;;;5.40;99.90;;;;;;5070819;28;20449;-71
2021/03/14 10:08:40;;;;;;;5.83;3.70;;;5.50;99.90;;;;;;5040577;28;20437;-70
2021/03/14 10:11:16;;;;;;;4.27;3.87;;;5.50;99.90;;;;;;5063998;28;20801;-70
2021/03/14 10:13:46;;;;;;;4.50;4.10;;;5.70;99.90;;;;;;5061287;28;20178;-71
2021/03/14 10:16:14;;;;;;;4.70;4.00;;;5.70;99.90;;;;;;5055838;28;20451;-70
2021/03/14 10:18:40;;;;;;;5.60;4.53;;;5.80;99.90;;;;;;5070418;28;20812;-71
2021/03/14 10:21:27;;;;;;;4.80;4.20;;;5.60;99.90;;;;;;5063391;28;20838;-70
2021/03/14 10:24:22;;;;;;;7.20;4.97;;;5.70;99.90;;;;;;5061079;28;20788;-71
2021/03/14 10:26:58;;;;;;;6.40;5.30;;;5.80;99.90;;;;;;5037956;28;21014;-71
2021/03/14 10:29:30;;;;;;;9.00;4.90;;;5.80;99.90;;;;;;5049965;28;20430;-72
2021/03/14 10:31:56;;;;;;;8.73;4.83;;;5.70;99.90;;;;;;5055153;28;20435;-70
2021/03/14 10:34:22;;;;;;;5.50;5.00;;;5.60;99.90;;;;;;5051871;28;20417;-71
2021/03/14 10:36:49;;;;;;;6.30;4.57;;;5.80;99.90;;;;;;5069268;28;20261;-71
2021/03/14 10:39:26;;;;;;;6.03;4.73;;;5.80;99.90;;;;;;5056660;28;20801;-70
2021/03/14 10:41:52;;;;;;;7.07;4.27;;;5.90;99.90;;;;;;5062650;28;20951;-70
2021/03/14 10:44:22;;;;;;;6.90;5.23;;;6.00;99.90;;;;;;5058307;28;20421;-71
2021/03/14 10:46:51;;;;;;;6.23;5.30;;;6.00;99.90;;;;;;5070228;28;20194;-71
2021/03/14 10:49:29;;;;;;;5.63;5.10;;;6.00;99.90;;;;;;5065824;28;20422;-69
2021/03/14 10:52:00;;;;;;;6.13;4.63;;;6.00;99.90;;;;;;5089084;28;20451;-70
2021/03/14 10:54:34;;;;;;;5.17;4.67;;;5.90;99.90;;;;;;5071393;28;20446;-71
2021/03/14 10:57:00;;;;;;;5.53;5.03;;;5.90;99.90;;;;;;5059013;28;20419;-70
2021/03/14 10:59:30;;;;;;;6.77;4.23;;;6.10;99.90;;;;;;5065806;28;20420;-70
2021/03/14 11:02:19;;;;;;;6.03;4.10;;;6.00;99.90;;;;;;5043095;28;20595;-70
2021/03/14 11:04:55;;;;;;;5.27;4.80;;;6.20;99.90;;;;;;5047240;28;20504;-70
2021/03/14 11:07:34;;;;;;;9.30;5.50;;;6.40;99.90;;;;;;5065353;28;20521;-71
2021/03/14 11:10:09;;;;;;;7.97;4.37;;;6.50;99.90;;;;;;5048927;28;20437;-71
2021/03/14 11:12:39;;;;;;;5.70;5.00;;;6.70;99.90;;;;;;5071900;28;20931;-69
2021/03/14 11:15:06;;;;;;;5.43;4.83;;;6.80;99.90;;;;;;5062546;28;20488;-70
2021/03/14 11:17:36;;;;;;;5.00;4.50;;;6.90;99.90;;;;;;5056381;28;20906;-70
2021/03/14 11:20:06;;;;;;;6.47;5.23;;;7.00;99.90;;;;;;5060243;28;20958;-70
2021/03/14 11:22:32;;;;;;;7.83;5.57;;;7.00;99.90;;;;;;5054892;28;20444;-71
2021/03/14 11:24:57;;;;;;;6.70;6.03;;;7.00;99.90;;;;;;5056274;28;20461;-70
2021/03/14 11:27:23;;;;;;;6.90;6.20;;;7.00;99.90;;;;;;5065505;28;20198;-70
2021/03/14 11:29:49;;;;;;;8.10;6.07;;;7.00;99.90;;;;;;5061661;28;20710;-71
2021/03/14 11:32:14;;;;;;;7.90;6.07;;;7.00;99.90;;;;;;5055406;28;20216;-70
2021/03/14 11:34:41;;;;;;;8.20;6.20;;;6.90;99.90;;;;;;5070642;28;20507;-70
2021/03/14 11:37:07;;;;;;;9.13;6.03;;;6.90;99.90;;;;;;5062109;28;20650;-70
2021/03/14 11:39:33;;;;;;;7.00;6.00;;;7.00;99.90;;;;;;5062783;28;20421;-70
2021/03/14 11:41:59;;;;;;;6.40;5.47;;;7.10;99.90;;;;;;5047979;28;20766;-71
2021/03/14 11:44:25;;;;;;;7.93;6.30;;;7.20;99.90;;;;;;5069849;28;20412;-72
2021/03/14 11:46:51;;;;;;;7.60;5.57;;;7.30;99.90;;;;;;5058769;28;20498;-70
2021/03/14 11:49:16;;;;;;;6.57;5.83;;;7.30;99.90;;;;;;5064752;28;20416;-71
2021/03/14 11:51:42;;;;;;;7.03;6.33;;;7.40;99.90;;;;;;5057996;28;20271;-71
2021/03/14 11:54:10;;;;;;;6.20;5.60;;;7.40;99.90;;;;;;5054626;28;20232;-70
2021/03/14 11:56:35;;;;;;;9.20;5.73;;;7.50;99.90;;;;;;5046881;28;20174;-69
2021/03/14 11:59:01;;;;;;;6.43;5.83;;;7.70;99.90;;;;;;5067147;28;20404;-70
2021/03/14 12:01:27;;;;;;;7.03;5.93;;;7.70;99.90;;;;;;5064225;28;20205;-70
2021/03/14 12:03:53;;;;;;;7.17;6.07;;;7.80;99.90;;;;;;5071209;28;20201;-70
2021/03/14 12:06:19;;;;;;;10.93;6.40;;;7.70;99.90;;;;;;5056272;28;20216;-70
2021/03/14 12:08:45;;;;;;;7.77;6.17;;;7.70;99.90;;;;;;5048916;28;20504;-71
2021/03/14 12:11:10;;;;;;;6.50;5.67;;;7.60;99.90;;;;;;5050193;28;20511;-71
2021/03/14 12:13:36;;;;;;;7.60;6.47;;;7.40;99.90;;;;;;5050221;28;20202;-70
2021/03/14 12:16:03;;;;;;;8.53;7.20;;;7.30;99.90;;;;;;5049847;28;20192;-71
2021/03/14 12:18:30;;;;;;;7.77;6.07;;;7.30;99.90;;;;;;5064835;28;20500;-71
2021/03/14 12:20:56;;;;;;;8.23;6.93;;;7.30;99.90;;;;;;5059456;28;20785;-71
2021/03/14 12:23:22;;;;;;;9.10;6.13;;;7.50;99.90;;;;;;5063121;28;20416;-69
2021/03/14 12:25:47;;;;;;;16.63;7.80;;;7.60;99.90;;;;;;5062353;28;20439;-69
2021/03/14 12:28:13;;;;;;;7.50;6.80;;;7.30;99.90;;;;;;5052635;28;20660;-71
2021/03/14 12:30:39;;;;;;;8.83;7.60;;;7.30;99.90;;;;;;5070192;28;20189;-70
2021/03/14 12:33:04;;;;;;;8.17;6.13;;;7.40;99.90;;;;;;5056464;28;20255;-70
2021/03/14 12:35:31;;;;;;;7.80;6.97;;;7.40;99.90;;;;;;5051774;28;20175;-70
2021/03/14 12:37:57;;;;;;;8.60;6.87;;;7.40;99.90;;;;;;5067753;28;20173;-70
2021/03/14 12:40:22;;;;;;;7.07;6.37;;;7.60;99.90;;;;;;5056552;28;20529;-70
2021/03/14 12:42:48;;;;;;;8.57;6.77;;;7.70;99.90;;;;;;5068532;28;20186;-70
2021/03/14 12:45:13;;;;;;;8.90;6.43;;;7.80;99.90;;;;;;5061513;28;20216;-71
2021/03/14 12:47:39;;;;;;;7.97;5.63;;;8.00;99.90;;;;;;5052404;28;20214;-71
2021/03/14 12:50:08;;;;;;;6.23;5.63;;;8.00;99.90;;;;;;5064666;28;20214;-71
2021/03/14 12:52:35;;;;;;;5.87;5.37;;;8.00;99.90;;;;;;5053136;28;20245;-71
2021/03/14 12:55:00;;;;;;;5.77;5.10;;;8.10;99.90;;;;;;5060555;28;20396;-70
2021/03/14 12:57:26;;;;;;;5.93;5.33;;;8.00;99.90;;;;;;5062637;28;20412;-71
2021/03/14 12:59:52;;;;;;;6.87;5.90;;;8.10;99.90;;;;;;5066947;28;20532;-70
2021/03/14 13:02:17;;;;;;;6.27;5.73;;;8.10;99.90;;;;;;5053371;28;20194;-69
2021/03/14 13:04:43;;;;;;;7.93;6.30;;;8.10;99.90;;;;;;5054894;28;20189;-70